sensor_id;sensor_type;location;lat;lon;timestamp;pressure;altitude;pressure_sealevel;temperature;humidity
61571;BME280;47463;49.884;10.010;2023-02-13T00:00:01;104170;;;4;99
61571;BME280;47463;49.884;10.010;2023-02-13T00:05:01;104170;;;3.9;99
61571;BME280;47463;49.884;10.010;2023-02-13T00:10:01;104170;;;3.7;99
61571;BME280;47463;49.884;10.010;2023-02-13T00:15:01;104170;;;3.6;99
61571;BME280;47463;49.884;10.010;2023-02-13T00:20:01;104150;;;3.4;99
61571;BME280;47463;49.884;10.010;2023-02-13T00:25:01;104150;;;3.2;99
61571;BME280;47463;49.884;10.010;2023-02-13T00:30:01;104150;;;3.1;99
61571;BME280;47463;49.884;10.010;2023-02-13T00:35:01;104150;;;3;99
61571;BME280;47463;49.884;10.010;2023-02-13T00:40:01;104140.00000000001;;;3;99
61571;BME280;47463;49.884;10.010;2023-02-13T00:45:01;104150;;;2.9;99
61571;BME280;47463;49.884;10.010;2023-02-13T00:50:01;104140.00000000001;;;2.8;99
61571;BME280;47463;49.884;10.010;2023-02-13T00:55:01;104140.00000000001;;;2.8;99
61571;BME280;47463;49.884;10.010;2023-02-13T01:00:01;104140.00000000001;;;2.7;99
61571;BME280;47463;49.884;10.010;2023-02-13T01:05:01;104140.00000000001;;;2.6;99
61571;BME280;47463;49.884;10.010;2023-02-13T01:10:01;104140.00000000001;;;2.5;99
61571;BME280;47463;49.884;10.010;2023-02-13T01:15:01;104150;;;2.4;99
61571;BME280;47463;49.884;10.010;2023-02-13T01:20:01;104140.00000000001;;;2.4;99
61571;BME280;47463;49.884;10.010;2023-02-13T01:25:01;104140.00000000001;;;2.3;99
61571;BME280;47463;49.884;10.010;2023-02-13T01:30:01;104140.00000000001;;;2.4;99
61571;BME280;47463;49.884;10.010;2023-02-13T01:35:01;104140.00000000001;;;2.3;99
61571;BME280;47463;49.884;10.010;2023-02-13T01:40:01;104130;;;2.4;99
61571;BME280;47463;49.884;10.010;2023-02-13T01:45:01;104140.00000000001;;;2.3;99
61571;BME280;47463;49.884;10.010;2023-02-13T01:50:02;104130;;;2.2;99
61571;BME280;47463;49.884;10.010;2023-02-13T01:55:01;104130;;;2.1;99
61571;BME280;47463;49.884;10.010;2023-02-13T02:00:03;104130;;;2.1;99
61571;BME280;47463;49.884;10.010;2023-02-13T02:05:01;104130;;;2.1;99
61571;BME280;47463;49.884;10.010;2023-02-13T02:10:02;104130;;;2.3;99
61571;BME280;47463;49.884;10.010;2023-02-13T02:15:01;104130;;;2.3;99
61571;BME280;47463;49.884;10.010;2023-02-13T02:20:04;104130;;;2.4;99
61571;BME280;47463;49.884;10.010;2023-02-13T02:25:03;104130;;;2.3;99
61571;BME280;47463;49.884;10.010;2023-02-13T02:30:08;104130;;;2.2;99
61571;BME280;47463;49.884;10.010;2023-02-13T02:35:03;104120;;;2;99
61571;BME280;47463;49.884;10.010;2023-02-13T02:40:04;104130;;;1.8;99
61571;BME280;47463;49.884;10.010;2023-02-13T02:45:03;104120;;;1.8;99
61571;BME280;47463;49.884;10.010;2023-02-13T02:50:05;104130;;;1.6;99
61571;BME280;47463;49.884;10.010;2023-02-13T02:55:03;104130;;;1.7;99
61571;BME280;47463;49.884;10.010;2023-02-13T03:00:01;104130;;;1.6;99
61571;BME280;47463;49.884;10.010;2023-02-13T03:05:01;104130;;;1.7;99
61571;BME280;47463;49.884;10.010;2023-02-13T03:10:03;104140.00000000001;;;1.8;99
61571;BME280;47463;49.884;10.010;2023-02-13T03:15:01;104140.00000000001;;;1.8;99
61571;BME280;47463;49.884;10.010;2023-02-13T03:20:03;104150;;;1.8;99
61571;BME280;47463;49.884;10.010;2023-02-13T03:25:04;104140.00000000001;;;1.7;99
61571;BME280;47463;49.884;10.010;2023-02-13T03:30:02;104130;;;1.6;99
61571;BME280;47463;49.884;10.010;2023-02-13T03:35:03;104130;;;1.7;99
61571;BME280;47463;49.884;10.010;2023-02-13T03:40:02;104140.00000000001;;;1.7;99
61571;BME280;47463;49.884;10.010;2023-02-13T03:45:02;104130;;;1.7;99
61571;BME280;47463;49.884;10.010;2023-02-13T03:50:01;104140.00000000001;;;1.9;99
61571;BME280;47463;49.884;10.010;2023-02-13T03:55:03;104140.00000000001;;;2.1;99
61571;BME280;47463;49.884;10.010;2023-02-13T04:00:01;104140.00000000001;;;2.2;99
61571;BME280;47463;49.884;10.010;2023-02-13T04:05:03;104140.00000000001;;;2.1;99
61571;BME280;47463;49.884;10.010;2023-02-13T04:10:02;104140.00000000001;;;2;99
61571;BME280;47463;49.884;10.010;2023-02-13T04:15:02;104140.00000000001;;;1.9;99
61571;BME280;47463;49.884;10.010;2023-02-13T04:20:01;104159.99999999999;;;1.8;99
61571;BME280;47463;49.884;10.010;2023-02-13T04:25:01;104150;;;1.7;99
61571;BME280;47463;49.884;10.010;2023-02-13T04:30:01;104159.99999999999;;;1.7;99
61571;BME280;47463;49.884;10.010;2023-02-13T04:35:01;104159.99999999999;;;1.7;99
61571;BME280;47463;49.884;10.010;2023-02-13T04:40:01;104159.99999999999;;;1.6;99
61571;BME280;47463;49.884;10.010;2023-02-13T04:45:01;104159.99999999999;;;1.6;99
61571;BME280;47463;49.884;10.010;2023-02-13T04:50:01;104159.99999999999;;;1.5;99
61571;BME280;47463;49.884;10.010;2023-02-13T04:55:01;104159.99999999999;;;1.6;99
61571;BME280;47463;49.884;10.010;2023-02-13T05:00:02;104150;;;1.5;99
61571;BME280;47463;49.884;10.010;2023-02-13T05:05:01;104150;;;1.5;99
61571;BME280;47463;49.884;10.010;2023-02-13T05:10:01;104159.99999999999;;;1.3;99
61571;BME280;47463;49.884;10.010;2023-02-13T05:15:01;104159.99999999999;;;1.2;99
61571;BME280;47463;49.884;10.010;2023-02-13T05:20:01;104170;;;1.1;99
61571;BME280;47463;49.884;10.010;2023-02-13T05:25:01;104159.99999999999;;;1;99
61571;BME280;47463;49.884;10.010;2023-02-13T05:30:01;104159.99999999999;;;0.9;99
61571;BME280;47463;49.884;10.010;2023-02-13T05:35:01;104159.99999999999;;;0.8;99
61571;BME280;47463;49.884;10.010;2023-02-13T05:40:01;104170;;;0.8;99
61571;BME280;47463;49.884;10.010;2023-02-13T05:45:01;104170;;;0.7;99
61571;BME280;47463;49.884;10.010;2023-02-13T05:50:01;104159.99999999999;;;0.6;99
61571;BME280;47463;49.884;10.010;2023-02-13T05:55:01;104170;;;0.6;99
61571;BME280;47463;49.884;10.010;2023-02-13T06:00:01;104170;;;0.5;99
61571;BME280;47463;49.884;10.010;2023-02-13T06:05:01;104180;;;0.5;99
61571;BME280;47463;49.884;10.010;2023-02-13T06:10:01;104190.00000000001;;;0.5;99
61571;BME280;47463;49.884;10.010;2023-02-13T06:15:01;104190.00000000001;;;0.5;99
61571;BME280;47463;49.884;10.010;2023-02-13T06:20:01;104200;;;0.5;99
61571;BME280;47463;49.884;10.010;2023-02-13T06:25:01;104200;;;0.4;99
61571;BME280;47463;49.884;10.010;2023-02-13T06:30:01;104200;;;0.4;99
61571;BME280;47463;49.884;10.010;2023-02-13T06:35:01;104209.99999999999;;;0.3;99
61571;BME280;47463;49.884;10.010;2023-02-13T06:40:01;104200;;;0.3;99
61571;BME280;47463;49.884;10.010;2023-02-13T06:45:01;104209.99999999999;;;0.3;99
61571;BME280;47463;49.884;10.010;2023-02-13T06:50:01;104209.99999999999;;;0.3;99
61571;BME280;47463;49.884;10.010;2023-02-13T06:55:01;104220;;;0.3;99
61571;BME280;47463;49.884;10.010;2023-02-13T07:00:01;104220;;;0.2;99
61571;BME280;47463;49.884;10.010;2023-02-13T07:05:01;104220;;;0.1;99
61571;BME280;47463;49.884;10.010;2023-02-13T07:10:01;104220;;;0.1;99
61571;BME280;47463;49.884;10.010;2023-02-13T07:15:01;104220;;;0.1;99
61571;BME280;47463;49.884;10.010;2023-02-13T07:20:01;104230;;;0.1;99
61571;BME280;47463;49.884;10.010;2023-02-13T07:25:01;104230;;;0.1;99
61571;BME280;47463;49.884;10.010;2023-02-13T07:30:01;104240.00000000001;;;-0.1;99
61571;BME280;47463;49.884;10.010;2023-02-13T07:35:01;104240.00000000001;;;-0.1;99
61571;BME280;47463;49.884;10.010;2023-02-13T07:40:01;104240.00000000001;;;-0.1;99
61571;BME280;47463;49.884;10.010;2023-02-13T07:45:01;104230;;;-0.1;99
61571;BME280;47463;49.884;10.010;2023-02-13T07:50:01;104240.00000000001;;;-0.2;99
61571;BME280;47463;49.884;10.010;2023-02-13T07:55:01;104240.00000000001;;;-0.2;99
61571;BME280;47463;49.884;10.010;2023-02-13T08:00:01;104240.00000000001;;;-0.1;99
61571;BME280;47463;49.884;10.010;2023-02-13T08:05:01;104250;;;-0.2;99
61571;BME280;47463;49.884;10.010;2023-02-13T08:10:01;104240.00000000001;;;-0.2;99
61571;BME280;47463;49.884;10.010;2023-02-13T08:15:01;104250;;;-0.1;99
61571;BME280;47463;49.884;10.010;2023-02-13T08:20:01;104250;;;-0.1;99
61571;BME280;47463;49.884;10.010;2023-02-13T08:25:01;104250;;;0.2;99
61571;BME280;47463;49.884;10.010;2023-02-13T08:30:01;104240.00000000001;;;0.1;99
61571;BME280;47463;49.884;10.010;2023-02-13T08:35:01;104250;;;0.1;99
61571;BME280;47463;49.884;10.010;2023-02-13T08:40:01;104250;;;0.1;99
61571;BME280;47463;49.884;10.010;2023-02-13T08:45:01;104250;;;0.2;99
61571;BME280;47463;49.884;10.010;2023-02-13T08:50:01;104259.99999999999;;;0.2;99
61571;BME280;47463;49.884;10.010;2023-02-13T08:55:01;104250;;;0.2;99
61571;BME280;47463;49.884;10.010;2023-02-13T09:00:01;104259.99999999999;;;0.2;99
61571;BME280;47463;49.884;10.010;2023-02-13T09:05:01;104259.99999999999;;;0.4;99
61571;BME280;47463;49.884;10.010;2023-02-13T09:10:01;104259.99999999999;;;0.4;99
61571;BME280;47463;49.884;10.010;2023-02-13T09:15:01;104259.99999999999;;;0.3;99
61571;BME280;47463;49.884;10.010;2023-02-13T09:20:01;104270;;;0.6;99
61571;BME280;47463;49.884;10.010;2023-02-13T09:25:01;104250;;;0.6;99
61571;BME280;47463;49.884;10.010;2023-02-13T09:30:01;104250;;;0.6;99
61571;BME280;47463;49.884;10.010;2023-02-13T09:35:01;104280;;;0.6;99
61571;BME280;47463;49.884;10.010;2023-02-13T09:40:01;104270;;;0.6;99
61571;BME280;47463;49.884;10.010;2023-02-13T09:45:02;104270;;;0.7;99
61571;BME280;47463;49.884;10.010;2023-02-13T09:50:02;104280;;;0.8;99
61571;BME280;47463;49.884;10.010;2023-02-13T09:55:01;104270;;;0.8;99
61571;BME280;47463;49.884;10.010;2023-02-13T10:00:02;104270;;;0.7;99
61571;BME280;47463;49.884;10.010;2023-02-13T10:05:02;104280;;;0.8;99
61571;BME280;47463;49.884;10.010;2023-02-13T10:10:02;104270;;;0.8;99
61571;BME280;47463;49.884;10.010;2023-02-13T10:15:07;104270;;;0.8;99
61571;BME280;47463;49.884;10.010;2023-02-13T10:20:01;104270;;;0.9;99
61571;BME280;47463;49.884;10.010;2023-02-13T10:25:02;104280;;;1.1;99
61571;BME280;47463;49.884;10.010;2023-02-13T10:30:02;104280;;;1.2;99
61571;BME280;47463;49.884;10.010;2023-02-13T10:35:01;104280;;;1;99
61571;BME280;47463;49.884;10.010;2023-02-13T10:40:01;104270;;;1.3;99
61571;BME280;47463;49.884;10.010;2023-02-13T10:45:03;104270;;;1.4;99
61571;BME280;47463;49.884;10.010;2023-02-13T10:50:03;104259.99999999999;;;1.5;99
61571;BME280;47463;49.884;10.010;2023-02-13T10:55:05;104259.99999999999;;;1.5;99
61571;BME280;47463;49.884;10.010;2023-02-13T11:00:03;104250;;;1.6;99
61571;BME280;47463;49.884;10.010;2023-02-13T11:05:01;104250;;;1.7;99
61571;BME280;47463;49.884;10.010;2023-02-13T11:10:02;104240.00000000001;;;1.8;99
61571;BME280;47463;49.884;10.010;2023-02-13T11:15:02;104240.00000000001;;;1.6;99
61571;BME280;47463;49.884;10.010;2023-02-13T11:20:02;104240.00000000001;;;1.7;99
61571;BME280;47463;49.884;10.010;2023-02-13T11:25:01;104230;;;2;99
61571;BME280;47463;49.884;10.010;2023-02-13T11:30:02;104230;;;2.1;99
61571;BME280;47463;49.884;10.010;2023-02-13T11:35:15;104230;;;2;99
61571;BME280;47463;49.884;10.010;2023-02-13T11:40:03;104240.00000000001;;;1.9;99
61571;BME280;47463;49.884;10.010;2023-02-13T11:45:02;104240.00000000001;;;2.1;99
61571;BME280;47463;49.884;10.010;2023-02-13T11:50:01;104230;;;2.1;99
61571;BME280;47463;49.884;10.010;2023-02-13T11:55:02;104220;;;2.3;99
61571;BME280;47463;49.884;10.010;2023-02-13T12:05:17;104220;;;2.4;99
61571;BME280;47463;49.884;10.010;2023-02-13T12:10:02;104220;;;2.5;99
61571;BME280;47463;49.884;10.010;2023-02-13T12:15:01;104220;;;2.4;99
61571;BME280;47463;49.884;10.010;2023-02-13T12:20:01;104220;;;2.7;99
61571;BME280;47463;49.884;10.010;2023-02-13T12:25:12;104220;;;2.9;99
61571;BME280;47463;49.884;10.010;2023-02-13T12:30:12;104209.99999999999;;;2.7;99
61571;BME280;47463;49.884;10.010;2023-02-13T12:35:07;104200;;;2.9;99
61571;BME280;47463;49.884;10.010;2023-02-13T12:40:05;104200;;;3.1;99
61571;BME280;47463;49.884;10.010;2023-02-13T12:45:07;104200;;;3.3;99
61571;BME280;47463;49.884;10.010;2023-02-13T12:50:04;104180;;;3.4;99
61571;BME280;47463;49.884;10.010;2023-02-13T12:55:04;104180;;;3.5;99
61571;BME280;47463;49.884;10.010;2023-02-13T13:00:08;104180;;;3.9;99
61571;BME280;47463;49.884;10.010;2023-02-13T13:05:04;104170;;;3.8;99
61571;BME280;47463;49.884;10.010;2023-02-13T13:10:09;104170;;;3.6;99
61571;BME280;47463;49.884;10.010;2023-02-13T13:15:03;104170;;;3.6;99
61571;BME280;47463;49.884;10.010;2023-02-13T13:20:02;104159.99999999999;;;3.5;99
61571;BME280;47463;49.884;10.010;2023-02-13T13:25:02;104150;;;3.6;99
61571;BME280;47463;49.884;10.010;2023-02-13T13:30:02;104150;;;3.6;99
61571;BME280;47463;49.884;10.010;2023-02-13T13:35:01;104130;;;3.8;99
61571;BME280;47463;49.884;10.010;2023-02-13T13:40:03;104130;;;4.1;99
61571;BME280;47463;49.884;10.010;2023-02-13T13:45:07;104140.00000000001;;;3.7;99
61571;BME280;47463;49.884;10.010;2023-02-13T13:50:01;104130;;;3.9;99
61571;BME280;47463;49.884;10.010;2023-02-13T13:55:01;104130;;;4.2;99
61571;BME280;47463;49.884;10.010;2023-02-13T14:00:20;104120;;;4.6;99
61571;BME280;47463;49.884;10.010;2023-02-13T14:05:01;104130;;;4.4;99
61571;BME280;47463;49.884;10.010;2023-02-13T14:10:01;104120;;;4.5;99
61571;BME280;47463;49.884;10.010;2023-02-13T14:15:01;104120;;;4.6;99
61571;BME280;47463;49.884;10.010;2023-02-13T14:20:01;104109.99999999999;;;4.8;98
61571;BME280;47463;49.884;10.010;2023-02-13T14:25:02;104109.99999999999;;;5.2;98
61571;BME280;47463;49.884;10.010;2023-02-13T14:30:01;104109.99999999999;;;5.2;97
61571;BME280;47463;49.884;10.010;2023-02-13T14:35:01;104109.99999999999;;;5.1;96
61571;BME280;47463;49.884;10.010;2023-02-13T14:40:09;104100;;;5.6;96
61571;BME280;47463;49.884;10.010;2023-02-13T14:45:01;104100;;;6;95
61571;BME280;47463;49.884;10.010;2023-02-13T14:50:01;104080;;;5.8;95
61571;BME280;47463;49.884;10.010;2023-02-13T14:55:02;104080;;;5.6;95
61571;BME280;47463;49.884;10.010;2023-02-13T15:00:03;104080;;;5.6;94
61571;BME280;47463;49.884;10.010;2023-02-13T15:05:02;104070;;;5.9;95
61571;BME280;47463;49.884;10.010;2023-02-13T15:10:03;104070;;;6;94
61571;BME280;47463;49.884;10.010;2023-02-13T15:15:01;104070;;;6;93
61571;BME280;47463;49.884;10.010;2023-02-13T15:20:02;104070;;;5.9;94
61571;BME280;47463;49.884;10.010;2023-02-13T15:25:01;104050;;;6.2;94
61571;BME280;47463;49.884;10.010;2023-02-13T15:30:02;104059.99999999999;;;6.1;93
61571;BME280;47463;49.884;10.010;2023-02-13T15:35:01;104050;;;6;94
61571;BME280;47463;49.884;10.010;2023-02-13T15:40:20;104059.99999999999;;;5.9;94
61571;BME280;47463;49.884;10.010;2023-02-13T15:45:01;104070;;;5.9;94
61571;BME280;47463;49.884;10.010;2023-02-13T15:50:01;104050;;;5.7;95
61571;BME280;47463;49.884;10.010;2023-02-13T15:55:01;104059.99999999999;;;5.5;95
61571;BME280;47463;49.884;10.010;2023-02-13T16:00:01;104050;;;5.4;95
61571;BME280;47463;49.884;10.010;2023-02-13T16:05:01;104040.00000000001;;;5.3;96
61571;BME280;47463;49.884;10.010;2023-02-13T16:10:17;104050;;;5.2;96
61571;BME280;47463;49.884;10.010;2023-02-13T16:15:01;104040.00000000001;;;5;97
61571;BME280;47463;49.884;10.010;2023-02-13T16:20:01;104040.00000000001;;;4.9;97
61571;BME280;47463;49.884;10.010;2023-02-13T16:25:03;104030;;;4.6;97
61571;BME280;47463;49.884;10.010;2023-02-13T16:30:02;104040.00000000001;;;4.4;97
61571;BME280;47463;49.884;10.010;2023-02-13T16:35:17;104030;;;4.1;97
61571;BME280;47463;49.884;10.010;2023-02-13T16:40:33;104030;;;3.9;97
61571;BME280;47463;49.884;10.010;2023-02-13T16:45:32;104030;;;3.6;97
61571;BME280;47463;49.884;10.010;2023-02-13T16:50:01;104030;;;3.5;98
61571;BME280;47463;49.884;10.010;2023-02-13T16:55:01;104040.00000000001;;;3.2;98
61571;BME280;47463;49.884;10.010;2023-02-13T17:00:05;104030;;;3.1;98
61571;BME280;47463;49.884;10.010;2023-02-13T17:05:12;104040.00000000001;;;2.8;98
61571;BME280;47463;49.884;10.010;2023-02-13T17:10:01;104040.00000000001;;;2.8;99
61571;BME280;47463;49.884;10.010;2023-02-13T17:15:01;104050;;;2.7;99
61571;BME280;47463;49.884;10.010;2023-02-13T17:20:01;104050;;;2.7;99
61571;BME280;47463;49.884;10.010;2023-02-13T17:25:02;104059.99999999999;;;2.7;99
61571;BME280;47463;49.884;10.010;2023-02-13T17:30:01;104050;;;2.6;99
61571;BME280;47463;49.884;10.010;2023-02-13T17:35:01;104050;;;2.5;99
61571;BME280;47463;49.884;10.010;2023-02-13T17:40:01;104070;;;2.3;99
61571;BME280;47463;49.884;10.010;2023-02-13T17:45:01;104070;;;2.1;99
61571;BME280;47463;49.884;10.010;2023-02-13T17:50:01;104070;;;2;99
61571;BME280;47463;49.884;10.010;2023-02-13T17:55:01;104070;;;1.9;99
61571;BME280;47463;49.884;10.010;2023-02-13T18:00:01;104070;;;1.9;99
61571;BME280;47463;49.884;10.010;2023-02-13T18:05:01;104070;;;1.9;99
61571;BME280;47463;49.884;10.010;2023-02-13T18:10:01;104070;;;1.7;99
61571;BME280;47463;49.884;10.010;2023-02-13T18:15:01;104059.99999999999;;;1.7;99
61571;BME280;47463;49.884;10.010;2023-02-13T18:20:01;104059.99999999999;;;1.9;99
61571;BME280;47463;49.884;10.010;2023-02-13T18:25:01;104070;;;1.6;99
61571;BME280;47463;49.884;10.010;2023-02-13T18:30:01;104059.99999999999;;;1.9;99
61571;BME280;47463;49.884;10.010;2023-02-13T18:35:01;104070;;;1.7;99
61571;BME280;47463;49.884;10.010;2023-02-13T18:40:01;104059.99999999999;;;1.4;99
61571;BME280;47463;49.884;10.010;2023-02-13T18:45:01;104070;;;1.4;99
61571;BME280;47463;49.884;10.010;2023-02-13T18:50:01;104059.99999999999;;;1.4;99
61571;BME280;47463;49.884;10.010;2023-02-13T18:55:01;104070;;;1.5;99
61571;BME280;47463;49.884;10.010;2023-02-13T19:00:01;104070;;;1.6;99
61571;BME280;47463;49.884;10.010;2023-02-13T19:05:01;104070;;;1.6;99
61571;BME280;47463;49.884;10.010;2023-02-13T19:10:01;104070;;;1.6;99
61571;BME280;47463;49.884;10.010;2023-02-13T19:15:01;104070;;;1.4;99
61571;BME280;47463;49.884;10.010;2023-02-13T19:20:01;104070;;;1.3;99
61571;BME280;47463;49.884;10.010;2023-02-13T19:25:01;104059.99999999999;;;1.2;99
61571;BME280;47463;49.884;10.010;2023-02-13T19:30:01;104070;;;1.2;99
61571;BME280;47463;49.884;10.010;2023-02-13T19:35:01;104080;;;1.2;99
61571;BME280;47463;49.884;10.010;2023-02-13T19:40:01;104070;;;1.2;99
61571;BME280;47463;49.884;10.010;2023-02-13T19:45:01;104070;;;1;99
61571;BME280;47463;49.884;10.010;2023-02-13T19:50:01;104080;;;1.1;99
61571;BME280;47463;49.884;10.010;2023-02-13T19:55:01;104059.99999999999;;;1.1;99
61571;BME280;47463;49.884;10.010;2023-02-13T20:00:01;104070;;;0.9;99
61571;BME280;47463;49.884;10.010;2023-02-13T20:05:01;104070;;;0.8;99
61571;BME280;47463;49.884;10.010;2023-02-13T20:10:01;104059.99999999999;;;0.7;99
61571;BME280;47463;49.884;10.010;2023-02-13T20:15:01;104070;;;0.7;99
61571;BME280;47463;49.884;10.010;2023-02-13T20:20:01;104070;;;0.9;99
61571;BME280;47463;49.884;10.010;2023-02-13T20:25:01;104070;;;0.7;99
61571;BME280;47463;49.884;10.010;2023-02-13T20:30:01;104070;;;0.7;99
61571;BME280;47463;49.884;10.010;2023-02-13T20:35:01;104070;;;0.7;99
61571;BME280;47463;49.884;10.010;2023-02-13T20:40:01;104070;;;0.7;99
61571;BME280;47463;49.884;10.010;2023-02-13T20:45:01;104070;;;0.7;99
61571;BME280;47463;49.884;10.010;2023-02-13T20:50:01;104080;;;0.5;99
61571;BME280;47463;49.884;10.010;2023-02-13T20:55:01;104080;;;0.6;99
61571;BME280;47463;49.884;10.010;2023-02-13T21:00:01;104080;;;0.6;99
61571;BME280;47463;49.884;10.010;2023-02-13T21:05:01;104080;;;0.6;99
61571;BME280;47463;49.884;10.010;2023-02-13T21:10:01;104080;;;0.6;99
61571;BME280;47463;49.884;10.010;2023-02-13T21:15:01;104080;;;0.6;99
61571;BME280;47463;49.884;10.010;2023-02-13T21:20:01;104080;;;0.6;99
61571;BME280;47463;49.884;10.010;2023-02-13T21:25:01;104080;;;0.4;99
61571;BME280;47463;49.884;10.010;2023-02-13T21:30:01;104090.00000000001;;;0.4;99
61571;BME280;47463;49.884;10.010;2023-02-13T21:35:01;104090.00000000001;;;0.4;99
61571;BME280;47463;49.884;10.010;2023-02-13T21:40:01;104080;;;0.4;99
61571;BME280;47463;49.884;10.010;2023-02-13T21:45:01;104080;;;0.4;99
61571;BME280;47463;49.884;10.010;2023-02-13T21:50:01;104080;;;0.3;99
61571;BME280;47463;49.884;10.010;2023-02-13T21:55:01;104070;;;1.3;99
61571;BME280;47463;49.884;10.010;2023-02-13T22:00:01;104070;;;1.4;99
61571;BME280;47463;49.884;10.010;2023-02-13T22:05:01;104070;;;1.3;99
61571;BME280;47463;49.884;10.010;2023-02-13T22:10:01;104059.99999999999;;;1.3;99
61571;BME280;47463;49.884;10.010;2023-02-13T22:15:01;104070;;;1;99
61571;BME280;47463;49.884;10.010;2023-02-13T22:20:01;104059.99999999999;;;1;99
61571;BME280;47463;49.884;10.010;2023-02-13T22:25:01;104070;;;1;99
61571;BME280;47463;49.884;10.010;2023-02-13T22:30:01;104059.99999999999;;;0.8;99
61571;BME280;47463;49.884;10.010;2023-02-13T22:35:01;104070;;;0.6;99
61571;BME280;47463;49.884;10.010;2023-02-13T22:40:01;104080;;;0.5;99
61571;BME280;47463;49.884;10.010;2023-02-13T22:45:01;104070;;;0.2;99
61571;BME280;47463;49.884;10.010;2023-02-13T22:50:01;104070;;;0.2;99
61571;BME280;47463;49.884;10.010;2023-02-13T22:55:01;104070;;;0.1;99
61571;BME280;47463;49.884;10.010;2023-02-13T23:00:01;104070;;;-0.2;99
61571;BME280;47463;49.884;10.010;2023-02-13T23:05:01;104080;;;-0.4;99
61571;BME280;47463;49.884;10.010;2023-02-13T23:10:01;104070;;;-0.4;99
61571;BME280;47463;49.884;10.010;2023-02-13T23:15:01;104090.00000000001;;;-0.6;99
61571;BME280;47463;49.884;10.010;2023-02-13T23:20:01;104080;;;-0.8;99
61571;BME280;47463;49.884;10.010;2023-02-13T23:25:01;104080;;;-0.9;99
61571;BME280;47463;49.884;10.010;2023-02-13T23:30:01;104090.00000000001;;;-1.1;99
61571;BME280;47463;49.884;10.010;2023-02-13T23:35:01;104080;;;-1.1;99
61571;BME280;47463;49.884;10.010;2023-02-13T23:40:01;104090.00000000001;;;-1.1;99
61571;BME280;47463;49.884;10.010;2023-02-13T23:45:01;104090.00000000001;;;-1.1;99
61571;BME280;47463;49.884;10.010;2023-02-13T23:50:01;104090.00000000001;;;-1;99
61571;BME280;47463;49.884;10.010;2023-02-13T23:55:01;104100;;;-1;99
